Time;durP1;ratioP1;P1;durP2;ratioP2;P2;SDS_P1;SDS_P2;PMS_P1;PMS_P2;Temp;Humidity;BMP_temperature;BMP_pressure;BME280_temperature;BME280_humidity;BME280_pressure;Samples;Min_cycle;Max_cycle;Signal;HPM_P1;HPM_P2
2022/10/28 00:02:08;;;;;;;1.83;1.83;;;20.60;75.20;;;;;;5064687;28;45902;-70
2022/10/28 00:04:36;;;;;;;1.60;1.60;;;20.60;74.60;;;;;;5062595;28;43462;-72
2022/10/28 00:07:05;;;;;;;1.50;1.50;;;20.70;74.40;;;;;;5062236;28;43420;-70
2022/10/28 00:09:33;;;;;;;1.57;1.47;;;20.60;74.30;;;;;;5061825;28;43585;-72
2022/10/28 00:12:01;;;;;;;1.50;1.50;;;20.60;74.60;;;;;;5060397;28;45059;-71
2022/10/28 00:14:29;;;;;;;1.73;1.73;;;20.50;74.80;;;;;;5063092;28;43377;-71
2022/10/28 00:16:56;;;;;;;1.70;1.70;;;20.40;75.30;;;;;;5059976;28;43491;-71
2022/10/28 00:19:24;;;;;;;1.60;1.60;;;20.40;75.40;;;;;;5062153;28;43878;-72
2022/10/28 00:21:52;;;;;;;1.80;1.80;;;20.40;75.30;;;;;;5062305;28;44331;-71
2022/10/28 00:24:22;;;;;;;1.70;1.70;;;20.30;75.40;;;;;;5073998;28;43394;-72
2022/10/28 00:26:49;;;;;;;1.73;1.73;;;20.30;75.50;;;;;;5064328;28;44130;-71
2022/10/28 00:29:18;;;;;;;2.87;1.50;;;20.30;76.00;;;;;;5064737;28;43945;-72
2022/10/28 00:31:46;;;;;;;1.80;1.80;;;20.30;75.90;;;;;;5065897;28;43362;-72
2022/10/28 00:34:15;;;;;;;1.57;1.57;;;20.30;75.70;;;;;;5061599;28;43519;-72
2022/10/28 00:36:44;;;;;;;1.57;1.57;;;20.30;75.70;;;;;;5059212;28;43500;-71
2022/10/28 00:39:13;;;;;;;1.70;1.70;;;20.20;75.70;;;;;;5058244;28;45252;-71
2022/10/28 00:41:44;;;;;;;1.50;1.50;;;20.20;76.10;;;;;;5063398;28;43560;-70
2022/10/28 00:44:46;;;;;;;1.70;1.70;;;20.20;76.10;;;;;;5059258;28;43898;-71
2022/10/28 00:47:16;;;;;;;2.00;2.00;;;20.40;75.90;;;;;;5058020;28;43843;-71
2022/10/28 00:49:44;;;;;;;1.60;1.60;;;20.50;75.30;;;;;;5061101;28;43863;-71
2022/10/28 00:52:14;;;;;;;1.77;1.77;;;20.60;74.60;;;;;;5064371;28;45196;-71
2022/10/28 00:54:42;;;;;;;1.70;1.70;;;20.70;74.30;;;;;;5061650;28;43552;-72
2022/10/28 00:57:13;;;;;;;1.77;1.77;;;20.70;74.30;;;;;;5063503;28;44062;-71
2022/10/28 00:59:43;;;;;;;1.70;1.70;;;20.60;74.50;;;;;;5063917;28;44107;-72
2022/10/28 01:02:11;;;;;;;1.80;1.80;;;20.50;74.70;;;;;;5082317;28;44962;-71
2022/10/28 01:04:39;;;;;;;1.70;1.70;;;20.40;75.20;;;;;;5086007;28;43900;-72
2022/10/28 01:07:08;;;;;;;1.70;1.70;;;20.40;75.30;;;;;;5085456;28;43482;-73
2022/10/28 01:09:35;;;;;;;1.60;1.60;;;20.40;75.30;;;;;;5085691;28;45746;-72
2022/10/28 01:12:06;;;;;;;1.50;1.50;;;20.30;75.30;;;;;;5082054;28;44971;-71
2022/10/28 01:14:43;;;;;;;1.50;1.50;;;20.30;75.50;;;;;;5085139;28;43938;-71
2022/10/28 01:17:27;;;;;;;1.70;1.70;;;20.30;75.90;;;;;;5083759;27;43451;-71
2022/10/28 01:20:40;;;;;;;1.50;1.50;;;20.20;75.80;;;;;;5084789;28;43665;-71
2022/10/28 01:23:14;;;;;;;1.70;1.70;;;20.30;75.80;;;;;;5028828;27;43496;-72
2022/10/28 01:25:57;;;;;;;1.63;1.63;;;20.30;75.80;;;;;;5082760;28;43534;-71
2022/10/28 01:28:41;;;;;;;1.87;1.87;;;20.20;75.80;;;;;;5081272;28;43577;-71
2022/10/28 01:31:27;;;;;;;1.50;1.50;;;20.20;76.30;;;;;;5088336;28;44026;-73
2022/10/28 01:34:00;;;;;;;1.70;1.70;;;20.30;76.00;;;;;;5083747;27;43729;-71
2022/10/28 01:36:32;;;;;;;1.70;1.70;;;20.40;75.50;;;;;;5089223;28;43397;-71
2022/10/28 01:39:04;;;;;;;1.60;1.60;;;20.60;75.00;;;;;;5088439;28;43497;-71
2022/10/28 01:41:34;;;;;;;1.77;1.77;;;20.70;74.60;;;;;;5086270;28;44055;-74
2022/10/28 01:44:05;;;;;;;1.67;1.67;;;20.70;74.30;;;;;;5084027;28;43866;-71
2022/10/28 01:46:37;;;;;;;1.60;1.60;;;20.60;74.40;;;;;;5086031;28;43431;-73
2022/10/28 01:49:08;;;;;;;1.50;1.50;;;20.60;74.70;;;;;;5082194;28;43390;-72
2022/10/28 01:51:37;;;;;;;1.70;1.70;;;20.50;75.00;;;;;;5088080;27;43951;-71
2022/10/28 01:54:06;;;;;;;1.50;1.50;;;20.40;75.30;;;;;;5082239;28;43707;-72
2022/10/28 01:56:35;;;;;;;1.60;1.60;;;20.40;75.30;;;;;;5083184;28;43425;-73
2022/10/28 01:59:03;;;;;;;1.70;1.70;;;20.40;75.30;;;;;;5085534;28;43944;-72
2022/10/28 02:01:31;;;;;;;1.70;1.70;;;20.30;75.40;;;;;;5101479;27;43672;-73
2022/10/28 02:04:01;;;;;;;1.70;1.70;;;20.30;76.30;;;;;;5090172;27;44414;-72
2022/10/28 02:06:29;;;;;;;1.73;1.73;;;20.30;75.90;;;;;;5097726;27;43526;-71
2022/10/28 02:09:07;;;;;;;1.60;1.60;;;20.30;75.90;;;;;;5100594;27;43493;-70
2022/10/28 02:11:43;;;;;;;1.50;1.50;;;20.20;75.60;;;;;;5105146;27;45117;-71
2022/10/28 02:14:19;;;;;;;1.80;1.80;;;20.20;75.70;;;;;;5105106;27;44146;-73
2022/10/28 02:16:49;;;;;;;1.57;1.57;;;20.20;75.80;;;;;;5107123;27;43441;-71
2022/10/28 02:19:25;;;;;;;2.07;1.97;;;20.20;76.20;;;;;;5104341;27;43463;-70
2022/10/28 02:21:58;;;;;;;1.70;1.70;;;20.30;76.10;;;;;;5100439;27;43801;-71
2022/10/28 02:24:31;;;;;;;1.63;1.63;;;20.40;75.60;;;;;;5102619;27;43428;-72
2022/10/28 02:27:01;;;;;;;1.90;1.90;;;20.60;75.10;;;;;;5101060;27;44384;-72
2022/10/28 02:29:31;;;;;;;1.50;1.50;;;20.60;75.30;;;;;;5084125;28;43546;-70
2022/10/28 02:32:01;;;;;;;1.50;1.50;;;20.60;74.40;;;;;;5106904;27;43916;-72
2022/10/28 02:34:31;;;;;;;1.80;1.80;;;20.60;74.50;;;;;;5104760;27;43488;-72
2022/10/28 02:37:01;;;;;;;1.50;1.50;;;20.50;74.70;;;;;;5099020;27;43464;-71
2022/10/28 02:39:30;;;;;;;1.40;1.40;;;20.40;74.90;;;;;;5103851;27;43322;-71
2022/10/28 02:41:59;;;;;;;1.70;1.70;;;20.40;75.50;;;;;;5104358;27;43604;-71
2022/10/28 02:44:28;;;;;;;1.43;1.43;;;20.40;75.50;;;;;;5107074;27;43463;-71
2022/10/28 02:46:58;;;;;;;1.50;1.50;;;20.30;75.30;;;;;;5103564;27;44055;-72
2022/10/28 02:49:26;;;;;;;1.67;1.67;;;20.30;75.50;;;;;;5106924;27;43479;-72
2022/10/28 02:51:58;;;;;;;1.60;1.60;;;20.20;75.50;;;;;;5106024;27;45235;-72
2022/10/28 02:54:27;;;;;;;1.70;1.70;;;20.20;76.00;;;;;;5103562;27;43406;-71
2022/10/28 02:56:57;;;;;;;1.60;1.60;;;20.30;75.90;;;;;;5104916;27;44075;-73
2022/10/28 02:59:25;;;;;;;1.50;1.50;;;20.40;75.50;;;;;;5107554;27;44015;-71
2022/10/28 03:01:53;;;;;;;1.63;1.63;;;20.40;75.10;;;;;;5103365;27;43887;-72
2022/10/28 03:04:21;;;;;;;1.93;1.87;;;20.40;75.00;;;;;;5101595;27;44064;-70
2022/10/28 03:06:49;;;;;;;1.40;1.40;;;20.40;75.30;;;;;;5101205;27;43461;-72
2022/10/28 03:09:18;;;;;;;1.70;1.70;;;20.40;75.30;;;;;;5107379;27;43496;-71
2022/10/28 03:11:46;;;;;;;1.70;1.70;;;20.40;75.20;;;;;;5106642;27;43673;-73
2022/10/28 03:14:14;;;;;;;1.80;1.80;;;20.40;75.20;;;;;;5086132;27;44445;-71
2022/10/28 03:16:42;;;;;;;1.77;1.77;;;20.30;75.30;;;;;;5102729;27;43316;-71
2022/10/28 03:19:10;;;;;;;1.60;1.60;;;20.30;75.60;;;;;;5101519;27;43529;-71
2022/10/28 03:21:38;;;;;;;1.60;1.60;;;20.30;75.90;;;;;;5103897;27;43944;-71
2022/10/28 03:24:06;;;;;;;1.40;1.40;;;20.30;75.80;;;;;;5104116;27;44156;-71
2022/10/28 03:26:36;;;;;;;1.47;1.47;;;20.30;75.70;;;;;;5098151;27;43454;-71
2022/10/28 03:29:03;;;;;;;1.60;1.60;;;20.20;75.70;;;;;;5105422;27;43544;-71
2022/10/28 03:31:31;;;;;;;1.40;1.40;;;20.20;76.00;;;;;;5104079;27;43895;-71
2022/10/28 03:33:59;;;;;;;1.57;1.57;;;20.20;76.30;;;;;;5106221;27;44061;-71
2022/10/28 03:36:27;;;;;;;1.87;1.87;;;20.30;76.10;;;;;;5106813;27;43513;-72
2022/10/28 03:38:55;;;;;;;1.60;1.60;;;20.40;75.60;;;;;;5083369;27;43523;-73
2022/10/28 03:41:23;;;;;;;1.70;1.70;;;20.60;75.10;;;;;;5106790;27;43906;-71
2022/10/28 03:43:52;;;;;;;1.63;1.63;;;20.70;74.70;;;;;;5105402;27;43817;-71
2022/10/28 03:46:20;;;;;;;1.70;1.70;;;20.60;74.40;;;;;;5104159;27;43382;-72
2022/10/28 03:48:48;;;;;;;1.53;1.53;;;20.60;74.60;;;;;;5103325;27;43428;-69
2022/10/28 03:51:16;;;;;;;1.60;1.60;;;20.50;74.80;;;;;;5103729;27;43902;-71
2022/10/28 03:53:44;;;;;;;1.60;1.60;;;20.40;75.00;;;;;;5081467;27;44623;-72
2022/10/28 03:56:12;;;;;;;1.57;1.57;;;20.40;75.40;;;;;;5106426;27;43434;-72
2022/10/28 03:58:39;;;;;;;1.50;1.50;;;20.40;75.50;;;;;;5104274;27;43512;-72
2022/10/28 04:01:09;;;;;;;1.60;1.60;;;20.40;75.50;;;;;;5081983;27;45915;-71
2022/10/28 04:03:38;;;;;;;1.67;1.67;;;20.30;75.60;;;;;;5092914;27;44596;-71
2022/10/28 04:06:08;;;;;;;1.60;1.50;;;20.30;75.70;;;;;;5102206;27;43758;-72
2022/10/28 04:08:36;;;;;;;1.50;1.50;;;20.30;76.10;;;;;;5082568;27;43926;-71
2022/10/28 04:11:05;;;;;;;1.50;1.50;;;20.20;76.00;;;;;;5081330;27;45560;-71
2022/10/28 04:13:32;;;;;;;1.30;1.30;;;20.20;75.80;;;;;;5105492;27;43497;-71
2022/10/28 04:16:01;;;;;;;1.60;1.60;;;20.30;76.00;;;;;;5100752;27;43451;-71
2022/10/28 04:18:30;;;;;;;1.70;1.70;;;20.20;75.90;;;;;;5109806;27;43481;-72
2022/10/28 04:20:58;;;;;;;1.50;1.50;;;20.20;76.10;;;;;;5109938;27;43947;-71
2022/10/28 04:23:26;;;;;;;1.60;1.60;;;20.20;76.20;;;;;;5108935;27;43563;-70
2022/10/28 04:25:54;;;;;;;1.30;1.30;;;20.20;76.30;;;;;;5106778;27;43358;-70
2022/10/28 04:28:23;;;;;;;1.50;1.50;;;20.20;76.40;;;;;;5107773;27;43438;-71
2022/10/28 04:30:51;;;;;;;1.70;1.70;;;20.10;76.30;;;;;;5108128;27;43934;-71
2022/10/28 04:33:18;;;;;;;1.33;1.33;;;20.10;76.40;;;;;;5110076;27;43442;-70
2022/10/28 04:35:48;;;;;;;1.60;1.60;;;20.10;76.40;;;;;;5103861;27;43682;-72
2022/10/28 04:38:15;;;;;;;1.50;1.50;;;20.10;76.50;;;;;;5108754;27;43462;-72
2022/10/28 04:40:43;;;;;;;1.83;1.73;;;20.10;76.90;;;;;;5086591;27;45339;-72
2022/10/28 04:43:11;;;;;;;1.67;1.60;;;20.20;76.60;;;;;;5106405;27;43857;-73
2022/10/28 04:45:39;;;;;;;1.40;1.40;;;20.40;76.00;;;;;;5106758;27;43509;-71
2022/10/28 04:48:08;;;;;;;1.60;1.60;;;20.60;75.20;;;;;;5106501;27;43508;-72
2022/10/28 04:50:36;;;;;;;1.70;1.70;;;20.80;74.40;;;;;;5091220;27;45590;-71
2022/10/28 04:53:11;;;;;;;1.43;1.37;;;21.10;73.60;;;;;;5089156;27;44747;-72
2022/10/28 04:55:39;;;;;;;1.40;1.40;;;21.30;72.80;;;;;;5109038;27;43437;-71
2022/10/28 04:58:09;;;;;;;1.57;1.57;;;21.50;72.10;;;;;;5109540;27;43453;-72
2022/10/28 05:00:36;;;;;;;1.50;1.50;;;21.60;72.30;;;;;;5104815;27;43591;-72
2022/10/28 05:03:04;;;;;;;1.60;1.60;;;21.70;71.20;;;;;;5086631;28;44516;-70
2022/10/28 05:05:32;;;;;;;1.33;1.33;;;21.80;71.00;;;;;;5106621;27;43501;-70
2022/10/28 05:08:00;;;;;;;1.43;1.43;;;21.90;70.80;;;;;;5105722;27;43454;-71
2022/10/28 05:10:30;;;;;;;1.50;1.50;;;21.80;70.60;;;;;;5104583;27;43986;-72
2022/10/28 05:12:58;;;;;;;1.40;1.40;;;21.70;70.80;;;;;;5100423;27;43449;-71
2022/10/28 05:15:26;;;;;;;1.30;1.30;;;21.60;71.40;;;;;;5103155;27;43453;-71
2022/10/28 05:17:54;;;;;;;1.50;1.50;;;21.50;71.90;;;;;;5104402;27;43514;-71
2022/10/28 05:20:22;;;;;;;1.80;1.80;;;21.30;72.10;;;;;;5090519;27;45255;-71
2022/10/28 05:22:51;;;;;;;1.60;1.53;;;21.20;72.50;;;;;;5109451;27;43390;-71
2022/10/28 05:25:20;;;;;;;1.40;1.40;;;21.10;72.90;;;;;;5100780;27;43432;-72
2022/10/28 05:27:49;;;;;;;1.70;1.70;;;20.90;73.50;;;;;;5108960;27;43435;-71
2022/10/28 05:30:17;;;;;;;1.27;1.27;;;20.90;73.80;;;;;;5107312;27;43849;-71
2022/10/28 05:32:45;;;;;;;1.53;1.53;;;20.80;73.80;;;;;;5106354;27;43434;-71
2022/10/28 05:35:17;;;;;;;1.40;1.40;;;20.70;74.00;;;;;;5084897;27;43972;-72
2022/10/28 05:37:45;;;;;;;1.20;1.20;;;20.70;74.30;;;;;;5102270;27;43473;-71
2022/10/28 05:40:13;;;;;;;1.47;1.47;;;20.60;74.70;;;;;;5094586;27;44128;-72
2022/10/28 05:42:41;;;;;;;1.60;1.60;;;20.60;74.90;;;;;;5101061;27;44058;-72
2022/10/28 05:45:11;;;;;;;1.50;1.50;;;20.70;74.60;;;;;;5105823;27;43494;-72
2022/10/28 05:47:42;;;;;;;1.77;1.70;;;20.80;74.30;;;;;;5105637;27;44077;-73
2022/10/28 05:50:10;;;;;;;1.60;1.60;;;20.90;73.80;;;;;;5107252;27;43948;-71
2022/10/28 05:52:38;;;;;;;1.67;1.60;;;20.90;73.50;;;;;;5106516;27;43533;-72
2022/10/28 05:55:06;;;;;;;1.50;1.50;;;20.90;73.50;;;;;;5102858;27;44037;-70
2022/10/28 05:57:35;;;;;;;1.47;1.47;;;20.80;73.70;;;;;;5108263;27;43472;-73
2022/10/28 06:00:03;;;;;;;1.50;1.50;;;20.70;74.00;;;;;;5101639;27;43849;-72
2022/10/28 06:02:40;;;;;;;1.40;1.40;;;20.60;74.50;;;;;;5097916;27;43410;-71
2022/10/28 06:05:08;;;;;;;1.43;1.43;;;20.60;74.60;;;;;;5105857;27;43527;-70
2022/10/28 06:07:36;;;;;;;1.30;1.30;;;20.60;74.70;;;;;;5107655;27;43437;-72
2022/10/28 06:10:06;;;;;;;1.40;1.40;;;20.50;74.80;;;;;;5101726;27;43698;-70
2022/10/28 06:12:33;;;;;;;1.40;1.40;;;20.50;75.00;;;;;;5100817;27;43442;-72
2022/10/28 06:15:07;;;;;;;1.60;1.60;;;20.40;75.40;;;;;;5086698;27;44033;-70
2022/10/28 06:17:36;;;;;;;1.80;1.80;;;20.50;75.40;;;;;;5104256;27;43408;-72
2022/10/28 06:20:06;;;;;;;1.50;1.50;;;20.60;75.00;;;;;;5108531;27;43845;-71
2022/10/28 06:22:34;;;;;;;1.40;1.40;;;20.70;74.40;;;;;;5101815;27;43439;-72
2022/10/28 06:25:02;;;;;;;1.30;1.30;;;20.80;74.10;;;;;;5102181;27;44492;-74
2022/10/28 06:27:30;;;;;;;1.40;1.40;;;20.80;74.00;;;;;;5108587;27;43426;-72
2022/10/28 06:29:57;;;;;;;1.53;1.53;;;20.70;74.10;;;;;;5106301;27;43685;-71
2022/10/28 06:32:25;;;;;;;1.50;1.50;;;20.60;74.30;;;;;;5108393;27;43482;-72
2022/10/28 06:34:53;;;;;;;1.40;1.40;;;20.60;74.70;;;;;;5108606;27;43882;-71
2022/10/28 06:37:23;;;;;;;1.30;1.30;;;20.50;74.90;;;;;;5099539;27;43415;-70
2022/10/28 06:39:52;;;;;;;1.50;1.50;;;20.50;75.00;;;;;;5103123;27;43695;-71
2022/10/28 06:42:20;;;;;;;1.30;1.30;;;20.40;75.00;;;;;;5104863;27;43477;-70
2022/10/28 06:44:48;;;;;;;1.60;1.60;;;20.40;75.10;;;;;;5100943;27;43474;-71
2022/10/28 06:47:16;;;;;;;1.80;1.80;;;20.30;75.40;;;;;;5088118;27;43534;-71
2022/10/28 06:49:44;;;;;;;1.43;1.43;;;20.30;75.60;;;;;;5102752;27;44001;-70
2022/10/28 06:52:12;;;;;;;1.40;1.40;;;20.30;75.50;;;;;;5085794;27;44682;-72
2022/10/28 06:54:42;;;;;;;1.30;1.30;;;20.30;75.40;;;;;;5101661;27;43466;-72
2022/10/28 06:57:10;;;;;;;1.30;1.30;;;20.30;75.50;;;;;;5086973;27;43628;-71
2022/10/28 06:59:38;;;;;;;1.47;1.47;;;20.30;75.80;;;;;;5106707;27;44535;-71
2022/10/28 07:02:06;;;;;;;1.40;1.40;;;20.20;76.00;;;;;;5107071;27;43519;-72
2022/10/28 07:04:34;;;;;;;1.30;1.30;;;20.40;75.90;;;;;;5087280;27;43513;-72
2022/10/28 07:07:02;;;;;;;1.30;1.30;;;20.50;75.40;;;;;;5107617;27;43454;-71
2022/10/28 07:09:30;;;;;;;1.50;1.50;;;20.60;74.70;;;;;;5083589;27;45488;-70
2022/10/28 07:12:00;;;;;;;1.37;1.37;;;20.70;74.30;;;;;;5108034;27;43613;-72
2022/10/28 07:14:33;;;;;;;1.20;1.20;;;20.70;74.20;;;;;;5106341;27;43436;-72
2022/10/28 07:17:01;;;;;;;1.37;1.37;;;20.70;74.30;;;;;;5101823;27;43488;-72
2022/10/28 07:19:29;;;;;;;1.60;1.50;;;20.60;74.50;;;;;;5107913;27;43932;-71
2022/10/28 07:21:57;;;;;;;1.40;1.40;;;20.50;74.80;;;;;;5103752;27;43509;-72
2022/10/28 07:24:25;;;;;;;1.30;1.30;;;20.50;75.10;;;;;;5107321;27;43367;-73
2022/10/28 07:26:58;;;;;;;1.50;1.50;;;20.40;75.10;;;;;;5104749;27;43435;-72
2022/10/28 07:29:27;;;;;;;1.27;1.27;;;20.40;75.10;;;;;;5104539;27;43563;-72
2022/10/28 07:31:55;;;;;;;1.40;1.40;;;20.40;75.30;;;;;;5101795;27;43383;-72
2022/10/28 07:34:23;;;;;;;1.33;1.33;;;20.30;75.50;;;;;;5103938;27;43446;-71
2022/10/28 07:36:54;;;;;;;1.33;1.33;;;20.30;75.80;;;;;;5107512;27;44027;-70
2022/10/28 07:39:22;;;;;;;1.40;1.40;;;20.40;75.60;;;;;;5077909;27;45680;-71
2022/10/28 07:41:50;;;;;;;1.50;1.50;;;20.40;75.20;;;;;;5084593;27;44845;-71
2022/10/28 07:44:18;;;;;;;1.43;1.43;;;20.50;75.10;;;;;;5083450;27;43455;-70
2022/10/28 07:46:47;;;;;;;1.40;1.40;;;20.40;75.00;;;;;;5107946;27;43711;-71
2022/10/28 07:49:16;;;;;;;1.30;1.30;;;20.40;75.30;;;;;;5101169;27;44277;-71
2022/10/28 07:51:44;;;;;;;1.50;1.50;;;20.40;75.20;;;;;;5102770;27;44049;-70
2022/10/28 07:54:12;;;;;;;1.27;1.27;;;20.40;75.20;;;;;;5105131;27;43528;-71
2022/10/28 07:56:40;;;;;;;1.47;1.47;;;20.40;75.30;;;;;;5104111;27;43442;-71
2022/10/28 07:59:07;;;;;;;1.10;1.10;;;20.30;75.50;;;;;;5103377;27;43805;-71
2022/10/28 08:01:37;;;;;;;1.23;1.23;;;20.30;75.60;;;;;;5085980;28;44308;-71
2022/10/28 08:04:06;;;;;;;1.50;1.50;;;20.30;75.60;;;;;;5086805;28;43426;-71
2022/10/28 08:06:35;;;;;;;1.20;1.20;;;20.30;75.60;;;;;;5082979;28;43483;-72
2022/10/28 08:09:03;;;;;;;1.30;1.30;;;20.30;75.60;;;;;;5085067;28;44842;-73
2022/10/28 08:11:31;;;;;;;1.33;1.33;;;20.20;75.80;;;;;;5086427;28;43465;-71
2022/10/28 08:13:59;;;;;;;1.50;1.50;;;20.20;76.10;;;;;;5082847;28;43430;-72
2022/10/28 08:16:27;;;;;;;1.50;1.50;;;20.30;75.90;;;;;;5087185;28;43458;-71
2022/10/28 08:18:56;;;;;;;1.40;1.40;;;20.40;75.30;;;;;;5086502;28;43829;-71
2022/10/28 08:21:25;;;;;;;1.20;1.20;;;20.60;74.90;;;;;;5067948;28;44709;-71
2022/10/28 08:23:54;;;;;;;1.50;1.50;;;20.60;74.30;;;;;;5086586;28;43462;-70
2022/10/28 08:26:22;;;;;;;1.50;1.50;;;20.60;74.20;;;;;;5086758;28;43491;-71
2022/10/28 08:28:50;;;;;;;1.27;1.27;;;20.60;74.40;;;;;;5086355;28;43665;-71
2022/10/28 08:31:17;;;;;;;1.23;1.23;;;20.50;74.50;;;;;;5088934;27;43497;-70
2022/10/28 08:33:45;;;;;;;1.30;1.30;;;20.40;74.80;;;;;;5086755;28;43502;-72
2022/10/28 08:36:14;;;;;;;1.37;1.37;;;20.40;75.20;;;;;;5086545;28;43404;-72
2022/10/28 08:38:44;;;;;;;1.40;1.40;;;20.40;75.20;;;;;;5086553;28;43708;-72
2022/10/28 08:41:24;;;;;;;1.40;1.40;;;20.30;75.20;;;;;;5086175;28;43353;-72
2022/10/28 08:44:00;;;;;;;1.27;1.27;;;20.30;75.30;;;;;;5085692;28;44254;-72
2022/10/28 08:46:46;;;;;;;1.23;1.20;;;20.30;75.70;;;;;;5087044;28;43461;-72
2022/10/28 08:49:15;;;;;;;1.37;1.37;;;20.20;75.80;;;;;;5085532;28;43803;-70
2022/10/28 08:51:45;;;;;;;1.07;1.07;;;20.30;75.80;;;;;;5085623;28;43531;-71
2022/10/28 08:54:16;;;;;;;1.30;1.30;;;20.20;75.60;;;;;;5067887;28;43415;-73
2022/10/28 08:56:46;;;;;;;1.40;1.40;;;20.20;75.80;;;;;;5082571;28;43865;-71
2022/10/28 08:59:15;;;;;;;1.40;1.40;;;20.20;76.10;;;;;;5085569;28;43863;-71
2022/10/28 09:01:46;;;;;;;1.73;1.50;;;20.20;76.00;;;;;;5085861;28;43431;-72
2022/10/28 09:04:18;;;;;;;1.30;1.30;;;20.40;76.50;;;;;;5069908;28;43488;-71
2022/10/28 09:06:46;;;;;;;1.40;1.40;;;20.50;75.20;;;;;;5089897;28;43363;-72
2022/10/28 09:09:18;;;;;;;1.50;1.50;;;20.60;74.60;;;;;;5089248;28;44161;-72
2022/10/28 09:11:54;;;;;;;1.40;1.40;;;20.60;74.30;;;;;;5089419;28;43941;-70
2022/10/28 09:14:29;;;;;;;1.40;1.40;;;20.60;74.30;;;;;;5089744;28;43946;-70
2022/10/28 09:17:02;;;;;;;1.40;1.40;;;20.60;74.60;;;;;;5071477;28;43588;-71
2022/10/28 09:19:37;;;;;;;1.40;1.30;;;20.50;74.80;;;;;;5088922;28;44004;-72
2022/10/28 09:22:14;;;;;;;1.50;1.50;;;20.40;75.20;;;;;;5084115;28;43405;-71
2022/10/28 09:24:52;;;;;;;1.50;1.50;;;20.40;75.20;;;;;;5088936;28;43471;-71
2022/10/28 09:27:28;;;;;;;1.50;1.50;;;20.40;75.30;;;;;;5089365;28;43441;-72
2022/10/28 09:30:00;;;;;;;1.30;1.30;;;20.30;75.30;;;;;;5088948;28;43871;-72
2022/10/28 09:32:31;;;;;;;1.40;1.40;;;20.30;75.60;;;;;;5070589;28;43851;-71
2022/10/28 09:35:01;;;;;;;1.30;1.30;;;20.30;75.90;;;;;;5089387;28;43393;-71
2022/10/28 09:37:30;;;;;;;1.40;1.40;;;20.30;75.80;;;;;;5089827;28;43470;-70
2022/10/28 09:40:02;;;;;;;1.40;1.40;;;20.30;75.70;;;;;;5087836;28;45234;-72
2022/10/28 09:42:32;;;;;;;1.70;1.60;;;20.30;75.80;;;;;;5088172;28;43483;-71
2022/10/28 09:45:01;;;;;;;1.40;1.40;;;20.20;75.80;;;;;;5086224;28;43415;-71
2022/10/28 09:47:32;;;;;;;1.40;1.40;;;20.20;76.20;;;;;;5089597;28;43438;-71
2022/10/28 09:50:01;;;;;;;1.40;1.40;;;20.30;76.00;;;;;;5089019;28;43598;-70
2022/10/28 09:52:30;;;;;;;1.20;1.20;;;20.40;75.60;;;;;;5088476;28;43759;-71
2022/10/28 09:54:59;;;;;;;1.50;1.50;;;20.60;75.10;;;;;;5088713;28;43531;-71
2022/10/28 09:57:30;;;;;;;1.30;1.30;;;20.60;74.40;;;;;;5071051;28;43511;-71
2022/10/28 09:59:58;;;;;;;1.30;1.30;;;20.70;74.30;;;;;;5088566;28;43864;-71
2022/10/28 10:02:28;;;;;;;1.23;1.23;;;20.70;74.60;;;;;;5088401;28;43847;-72
2022/10/28 10:04:56;;;;;;;1.20;1.20;;;20.60;74.80;;;;;;5088748;28;43503;-71
2022/10/28 10:07:29;;;;;;;1.20;1.20;;;20.50;75.10;;;;;;5070691;28;43512;-70
2022/10/28 10:09:57;;;;;;;1.33;1.33;;;20.40;75.20;;;;;;5092067;27;45482;-72
2022/10/28 10:12:27;;;;;;;1.50;1.50;;;20.40;75.20;;;;;;5088198;28;43483;-71
2022/10/28 10:14:56;;;;;;;1.30;1.30;;;20.40;75.40;;;;;;5088174;27;43395;-70
2022/10/28 10:17:25;;;;;;;1.37;1.37;;;20.40;75.60;;;;;;5085365;28;43555;-70
2022/10/28 10:20:01;;;;;;;1.30;1.30;;;20.30;75.70;;;;;;5088385;28;43920;-71
2022/10/28 10:22:30;;;;;;;1.30;1.30;;;20.30;75.80;;;;;;5088438;28;44008;-70
2022/10/28 10:24:58;;;;;;;1.30;1.30;;;20.30;75.60;;;;;;5086832;27;43459;-70
2022/10/28 10:27:27;;;;;;;1.47;1.47;;;20.40;75.20;;;;;;5088347;28;43555;-71
2022/10/28 10:29:56;;;;;;;1.40;1.40;;;20.50;75.00;;;;;;5087918;28;43837;-71
2022/10/28 10:32:26;;;;;;;1.53;1.43;;;20.50;75.10;;;;;;5087797;28;43505;-71
2022/10/28 10:35:02;;;;;;;1.43;1.43;;;20.50;75.30;;;;;;5087985;28;43379;-73
2022/10/28 10:37:32;;;;;;;1.80;1.70;;;20.40;75.00;;;;;;5088291;28;43454;-72
2022/10/28 10:40:04;;;;;;;1.40;1.40;;;20.40;75.20;;;;;;5086678;28;43603;-73
2022/10/28 10:42:33;;;;;;;1.40;1.40;;;20.40;75.40;;;;;;5084266;28;43503;-70
2022/10/28 10:45:23;;;;;;;2.00;1.60;;;20.40;75.60;;;;;;5087873;28;44505;-71
2022/10/28 10:48:07;;;;;;;2.93;1.60;;;20.30;75.10;;;;;;5088009;28;44031;-71
2022/10/28 10:50:36;;;;;;;1.40;1.40;;;20.30;74.60;;;;;;5087900;28;43616;-72
2022/10/28 10:53:04;;;;;;;1.37;1.37;;;20.40;75.50;;;;;;5087065;28;43928;-71
2022/10/28 10:55:36;;;;;;;1.30;1.30;;;20.30;75.50;;;;;;5087870;28;43327;-73
2022/10/28 10:58:06;;;;;;;2.10;1.70;;;20.30;75.60;;;;;;5087999;28;43438;-71
2022/10/28 11:00:36;;;;;;;1.60;1.50;;;20.30;75.70;;;;;;5068591;28;45714;-73
2022/10/28 11:03:08;;;;;;;3.53;2.00;;;20.30;75.60;;;;;;5087369;28;43758;-71
2022/10/28 11:05:36;;;;;;;1.63;1.63;;;20.40;75.90;;;;;;5087519;28;43547;-71
2022/10/28 11:08:06;;;;;;;1.60;1.60;;;20.50;74.80;;;;;;5069201;28;43442;-70
2022/10/28 11:10:35;;;;;;;2.77;1.77;;;20.60;74.30;;;;;;5087481;28;45103;-72
2022/10/28 11:13:06;;;;;;;2.57;1.70;;;20.70;74.00;;;;;;5087371;28;43507;-71
2022/10/28 11:15:34;;;;;;;3.63;1.70;;;20.70;74.20;;;;;;5082931;28;43461;-72
2022/10/28 11:18:02;;;;;;;1.50;1.50;;;20.60;74.50;;;;;;5069056;28;43626;-72
2022/10/28 11:20:39;;;;;;;3.13;1.70;;;20.60;74.80;;;;;;5086140;27;45907;-71
2022/10/28 11:23:27;;;;;;;2.20;1.60;;;20.50;75.10;;;;;;5083940;28;43391;-71
2022/10/28 11:25:56;;;;;;;1.60;1.60;;;20.40;75.00;;;;;;5086445;27;43381;-71
2022/10/28 11:28:42;;;;;;;1.63;1.53;;;20.40;75.30;;;;;;5087635;28;43538;-72
2022/10/28 11:31:24;;;;;;;3.90;1.40;;;20.40;75.40;;;;;;5082164;28;44068;-71
2022/10/28 11:33:55;;;;;;;3.83;1.70;;;20.40;75.50;;;;;;5086696;28;43879;-72
2022/10/28 11:36:24;;;;;;;1.57;1.50;;;20.40;75.60;;;;;;5086356;28;43404;-72
2022/10/28 11:39:14;;;;;;;1.60;1.50;;;20.40;75.60;;;;;;5084943;28;43587;-71
2022/10/28 11:41:53;;;;;;;1.70;1.60;;;20.30;75.60;;;;;;5086600;28;44663;-71
2022/10/28 11:44:33;;;;;;;2.03;1.80;;;20.40;75.80;;;;;;5082707;28;43357;-71
2022/10/28 11:47:08;;;;;;;1.70;1.60;;;20.30;75.90;;;;;;5087003;28;43975;-72
2022/10/28 11:50:01;;;;;;;1.80;1.70;;;20.30;76.00;;;;;;5087501;28;44015;-72
2022/10/28 11:52:35;;;;;;;1.57;1.50;;;20.40;75.80;;;;;;5081511;28;44021;-71
2022/10/28 11:55:16;;;;;;;1.53;1.53;;;20.50;75.30;;;;;;5086800;28;43863;-70
2022/10/28 11:57:50;;;;;;;1.60;1.50;;;20.50;75.10;;;;;;5068329;28;43404;-71
2022/10/28 12:00:36;;;;;;;1.60;1.50;;;20.50;75.10;;;;;;5085472;28;43434;-72
2022/10/28 12:03:26;;;;;;;1.50;1.50;;;20.50;75.40;;;;;;5065090;28;44855;-72
2022/10/28 12:05:54;;;;;;;1.60;1.50;;;20.50;75.20;;;;;;5070063;28;43489;-70
2022/10/28 12:08:34;;;;;;;1.63;1.40;;;20.50;75.20;;;;;;5083320;28;43828;-71
2022/10/28 12:11:09;;;;;;;1.43;1.43;;;20.50;75.40;;;;;;5085994;28;43502;-73
2022/10/28 12:13:40;;;;;;;1.47;1.43;;;20.40;75.60;;;;;;5080375;27;45677;-71
2022/10/28 12:16:12;;;;;;;1.87;1.77;;;20.40;75.80;;;;;;5081103;28;43408;-72
2022/10/28 12:18:45;;;;;;;1.50;1.50;;;20.40;75.80;;;;;;5086734;28;43438;-72
2022/10/28 12:21:15;;;;;;;1.67;1.67;;;20.40;75.90;;;;;;5087181;28;43438;-71
2022/10/28 12:23:43;;;;;;;1.67;1.60;;;20.40;75.90;;;;;;5067715;28;45963;-70
2022/10/28 12:26:12;;;;;;;1.60;1.60;;;20.30;76.10;;;;;;5067964;28;44729;-72
2022/10/28 12:28:42;;;;;;;1.73;1.73;;;20.40;76.10;;;;;;5086493;28;43474;-71
2022/10/28 12:31:17;;;;;;;1.70;1.60;;;20.40;75.70;;;;;;5086495;28;43517;-73
2022/10/28 12:33:46;;;;;;;1.80;1.70;;;20.60;75.40;;;;;;5085912;28;44043;-73
2022/10/28 12:36:19;;;;;;;1.77;1.70;;;20.70;75.00;;;;;;5067900;28;43511;-72
2022/10/28 12:38:49;;;;;;;1.63;1.63;;;20.70;74.70;;;;;;5089531;27;43827;-72
2022/10/28 12:41:18;;;;;;;2.00;1.50;;;20.70;74.80;;;;;;5089828;28;43757;-71
2022/10/28 12:43:48;;;;;;;1.73;1.63;;;20.60;75.00;;;;;;5089581;28;44066;-70
2022/10/28 12:46:22;;;;;;;1.90;1.60;;;20.60;75.20;;;;;;5096259;27;44446;-70
2022/10/28 12:48:54;;;;;;;2.07;2.07;;;20.50;75.50;;;;;;5088652;27;43481;-72
2022/10/28 12:51:25;;;;;;;1.60;1.60;;;20.50;75.50;;;;;;5090194;27;44034;-72
2022/10/28 12:53:55;;;;;;;1.47;1.47;;;20.50;75.60;;;;;;5071169;28;44727;-70
2022/10/28 12:56:26;;;;;;;1.67;1.60;;;20.50;75.80;;;;;;5073050;28;45391;-72
2022/10/28 12:58:58;;;;;;;1.70;1.70;;;20.40;75.80;;;;;;5088063;28;43296;-71
2022/10/28 13:01:29;;;;;;;2.07;1.97;;;20.40;76.10;;;;;;5089844;28;43427;-72
2022/10/28 13:03:57;;;;;;;2.10;2.00;;;20.50;75.90;;;;;;5088318;27;46015;-72
2022/10/28 13:06:40;;;;;;;1.60;1.50;;;20.50;75.60;;;;;;5089411;28;43462;-72